HUSO

Details ICAO HUSO (SRT)
Name SOROTI
Region Uganda
Timezone Africa/Kampala (UTC+3.0)
Plans Departing 0
Arriving 0
Stats Elevation 3,641 ft / 1,110 m (AMSL)
Location 1.727330° 33.620972°
Runways 2
Magnetic Variation 1.794° E
Sunrise 2018-05-25 03:37:40 UTC / 2018-05-25 06:37:40 Local
Sunset 2018-05-25 15:50:05 UTC / 2018-05-25 18:50:05 Local
Advertisement - Login to hide

Runways

ID Width Length Bearing (true) Bearing (mag) Surface Threshold Offset Overrun Length
05 98 ft / 30 m 6,105 ft / 1,861 m 51.09° 49.30° Asphalt 0 ft / 0 m 0 ft / 0 m
09 98 ft / 30 m 1,858 ft / 566 m 89.81° 88.02° Dirt 0 ft / 0 m 0 ft / 0 m
23 98 ft / 30 m 6,105 ft / 1,861 m 231.09° 229.30° Asphalt 0 ft / 0 m 0 ft / 0 m
27 98 ft / 30 m 1,858 ft / 566 m 269.81° 268.02° Dirt 0 ft / 0 m 0 ft / 0 m

Map

Weather


0- 5 10 15 20 25 30 35+ Temperature / ° C

Clouds and Precipitation
Forecast for 2018-05-25 18:00 UTC. Updated 4 hours ago

Ground ~20,000 ft ~40,000 ft Winds

METAR

Not found

TAF

TAF TAF HUSO 251700Z 2518/2618 16004KT 9999 TS SCT019 FEW021CB SCT100 BECMG 2600/2606 36003KT -RA SCT018 BKN100 BECMG 2609/2613 16005KT TS BKN021 FEW023CB FM 261500 9000 TSRA SCT020 FEW022CB BKN110

Frequencies

Tower 118.30 MHz TWR
Approach 121.10 MHz APP
Warning: Do not use this data for real-world aviation or navigation. No guarantee of current accuracy is given.